Главная страница
METAR-TAF:

METAR-TAF

Аэропорты :

Såtenäs, Швеция

широта: 58-26N, долгота: 012-42E, высота над уровнем моря: 54 м

Текущие метеонаблюдения

Эта сводка был подготовлена 23 минут назад, в 18:50 UTC
Ветер 8 Узел от южный-юго-западный
Температура 8°C
Влажность 100%
Давление 1029 hPa
Видимость 10 км и более
небольшая облачность на высоте 4500 фута

METAR: ESIB 151850Z 20008KT 9999 FEW045 08/08 Q1029

Время: 20:13 (19:13 UTC)

Прогноз

Эта сводка был подготовлена 18 минут назад, в 18:55 UTC
Прогноз действительный с 15-го 18 UTC до 15-го 21 UTC
Ветер 13 Узел от южный-юго-западный
Видимость 10 км и более
Отдельные облака на высоте 1300 фута
Отдельные облака на высоте 2500 фута
временами
С 15-го 18 UTC до 15-го 21 UTC
Видимость: 4000 м
Рассеянная облачность на высоте 1500 фута
дымка

TAF: ESIB 151855Z 1518/1521 21013KT 9999 SCT013 SCT025 TEMPO 1518/1521 4000 BR BKN015 RMK MIL

Метеонаблюдения и прогнозы для более 4000 аэропортов (сводки METAR и TAF).

Имеющиеся станции представлены на карте желтыми и красными точками.

Чтобы увидеть название станции, наведите на нее мышь.

Затем щелкните, чтобы увидеть метеонаблюдения и метеопрогнозы.

Управление картой: чтобы увеличить масштаб, щелкните зеленые кнопки с черным крестиком; чтобы уменьшить масштаб, щелкните зеленую кнопку с тире; для просмотра соседних карт щелкайте зеленые стрелки.


METAR-TAF: